Time;durP1;ratioP1;P1;durP2;ratioP2;P2;SDS_P1;SDS_P2;PMS_P1;PMS_P2;Temp;Humidity;BMP_temperature;BMP_pressure;BME280_temperature;BME280_humidity;BME280_pressure;Samples;Min_cycle;Max_cycle;Signal;HPM_P1;HPM_P2
2023/09/01 00:01:27;;;;;;;0.10;0.10;;;;;;;14.45;100.00;98829.97;5076035;28;20263;-55
2023/09/01 00:04:35;;;;;;;0.00;0.00;;;;;;;14.43;100.00;98836.38;5075804;28;20212;-55
2023/09/01 00:07:22;;;;;;;0.10;0.10;;;;;;;14.41;100.00;98835.66;5076013;28;20200;-55
2023/09/01 00:10:10;;;;;;;0.10;0.10;;;;;;;14.43;100.00;98839.03;5075850;28;20265;-55
2023/09/01 00:12:59;;;;;;;0.10;0.10;;;;;;;14.65;100.00;98854.91;5075666;28;20219;-55
2023/09/01 00:15:46;;;;;;;0.10;0.10;;;;;;;14.63;100.00;98861.34;5075766;28;20404;-55
2023/09/01 00:18:33;;;;;;;0.00;0.00;;;;;;;14.74;100.00;98846.13;5075873;28;20679;-55
2023/09/01 00:21:21;;;;;;;0.10;0.10;;;;;;;14.63;100.00;98845.34;5075725;28;20203;-55
2023/09/01 00:24:09;;;;;;;0.07;0.07;;;;;;;14.82;100.00;98848.97;5075612;28;20188;-55
2023/09/01 00:26:55;;;;;;;0.10;0.10;;;;;;;14.81;100.00;98855.28;5074334;28;20656;-56
2023/09/01 00:29:42;;;;;;;0.10;0.10;;;;;;;14.81;100.00;98851.78;5075647;28;20203;-55
2023/09/01 00:32:29;;;;;;;0.10;0.10;;;;;;;14.87;100.00;98854.78;5074214;28;20386;-55
2023/09/01 00:35:16;;;;;;;0.10;0.10;;;;;;;14.88;100.00;98858.28;5075565;28;20191;-55
2023/09/01 00:38:05;;;;;;;0.10;0.10;;;;;;;15.04;100.00;98868.44;5075144;28;20269;-55
2023/09/01 00:40:52;;;;;;;0.10;0.10;;;;;;;15.04;100.00;98868.44;5074216;28;20195;-55
2023/09/01 00:43:39;;;;;;;0.10;0.10;;;;;;;15.03;100.00;98870.25;5075361;28;20195;-56
2023/09/01 00:46:27;;;;;;;0.10;0.10;;;;;;;15.00;100.00;98867.88;5075369;28;20203;-55
2023/09/01 00:49:17;;;;;;;0.10;0.10;;;;;;;15.04;100.00;98871.09;5075042;28;20195;-55
2023/09/01 00:52:05;;;;;;;0.03;0.03;;;;;;;15.14;100.00;98874.66;5075023;28;20667;-55
2023/09/01 00:54:53;;;;;;;0.10;0.10;;;;;;;15.12;100.00;98880.13;5074077;28;20203;-55
2023/09/01 00:57:41;;;;;;;0.10;0.10;;;;;;;15.21;100.00;98878.50;5073756;28;20208;-55
2023/09/01 01:00:28;;;;;;;0.10;0.10;;;;;;;15.41;100.00;98882.06;5075017;28;20215;-56
2023/09/01 01:03:15;;;;;;;0.10;0.10;;;;;;;15.26;100.00;98868.28;5074652;28;20188;-55
2023/09/01 01:06:14;;;;;;;0.10;0.10;;;;;;;15.30;100.00;98876.84;5073124;28;20195;-55
2023/09/01 01:09:08;;;;;;;0.10;0.10;;;;;;;15.35;100.00;98870.13;5074834;28;20718;-55
2023/09/01 01:12:06;;;;;;;0.00;0.00;;;;;;;15.38;100.00;98869.00;5073469;28;20684;-55
2023/09/01 01:14:54;;;;;;;0.10;0.10;;;;;;;15.36;100.00;98857.63;5073787;28;20204;-55
2023/09/01 01:17:46;;;;;;;0.00;0.00;;;;;;;15.37;100.00;98856.66;5074606;28;20196;-55
2023/09/01 01:20:38;;;;;;;0.10;0.10;;;;;;;15.25;100.00;98847.91;5074410;28;20199;-55
2023/09/01 01:23:26;;;;;;;0.00;0.00;;;;;;;15.28;100.00;98839.63;5074641;28;20274;-55
2023/09/01 01:26:15;;;;;;;0.10;0.10;;;;;;;15.22;100.00;98845.50;5073146;28;20202;-55
2023/09/01 01:29:01;;;;;;;0.10;0.10;;;;;;;15.28;100.00;98860.97;5073241;28;20191;-55
2023/09/01 01:31:49;;;;;;;0.10;0.10;;;;;;;15.29;100.00;98864.47;5074554;28;20191;-55
2023/09/01 01:34:38;;;;;;;0.10;0.10;;;;;;;15.31;100.00;98871.38;5072998;28;20266;-55
2023/09/01 01:37:30;;;;;;;0.10;0.10;;;;;;;15.27;100.00;98867.28;5074069;28;20778;-55
2023/09/01 01:40:22;;;;;;;0.10;0.10;;;;;;;15.32;100.00;98870.38;5072774;28;20266;-56
2023/09/01 01:43:12;;;;;;;0.10;0.10;;;;;;;15.33;100.00;98871.22;5073211;28;20196;-56
2023/09/01 01:45:59;;;;;;;0.10;0.10;;;;;;;15.18;100.00;98868.09;5073137;28;20195;-55
2023/09/01 01:48:46;;;;;;;0.03;0.03;;;;;;;15.31;100.00;98859.84;5073127;28;20277;-55
2023/09/01 01:51:33;;;;;;;0.10;0.10;;;;;;;15.11;100.00;98864.25;5073929;28;20257;-55
2023/09/01 01:54:20;;;;;;;0.10;0.10;;;;;;;15.12;100.00;98863.28;5073789;28;20227;-55
2023/09/01 01:57:10;;;;;;;0.10;0.10;;;;;;;15.20;100.00;98851.94;5071619;28;20195;-55
2023/09/01 01:59:57;;;;;;;0.10;0.10;;;;;;;15.18;100.00;98860.09;5072883;28;20269;-55
2023/09/01 02:02:45;;;;;;;0.10;0.10;;;;;;;15.14;100.00;98864.00;5072693;28;20200;-55
2023/09/01 02:05:33;;;;;;;0.10;0.10;;;;;;;15.14;100.00;98869.31;5072633;28;20265;-55
2023/09/01 02:08:20;;;;;;;0.10;0.10;;;;;;;15.20;100.00;98867.97;5073709;28;20249;-55
2023/09/01 02:11:07;;;;;;;0.10;0.10;;;;;;;15.21;100.00;98881.16;5072342;28;20203;-55
2023/09/01 02:13:55;;;;;;;0.07;0.07;;;;;;;15.28;100.00;98871.66;5072311;28;20211;-55
2023/09/01 02:16:43;;;;;;;0.10;0.10;;;;;;;15.12;100.00;98874.81;5071691;28;20265;-55
2023/09/01 02:19:30;;;;;;;0.10;0.10;;;;;;;15.11;100.00;98882.94;5072404;28;20260;-56
2023/09/01 02:22:17;;;;;;;0.10;0.10;;;;;;;15.23;100.00;98886.34;5073522;28;20275;-55
2023/09/01 02:25:08;;;;;;;0.10;0.10;;;;;;;15.23;100.00;98878.34;5072451;28;20194;-55
2023/09/01 02:27:56;;;;;;;0.10;0.10;;;;;;;15.11;100.00;98872.28;5073069;28;20202;-56
2023/09/01 02:30:45;;;;;;;0.00;0.00;;;;;;;15.06;100.00;98878.03;5073336;28;20242;-55
2023/09/01 02:33:32;;;;;;;0.10;0.10;;;;;;;15.12;100.00;98876.63;5071857;28;20214;-56
2023/09/01 02:36:26;;;;;;;0.10;0.10;;;;;;;14.99;100.00;98878.69;5073144;28;20195;-56
2023/09/01 02:39:12;;;;;;;0.10;0.10;;;;;;;15.04;100.00;98889.78;5073001;28;20235;-56
2023/09/01 02:42:01;;;;;;;0.10;0.10;;;;;;;15.01;100.00;98885.56;5071669;28;20266;-56
2023/09/01 02:44:47;;;;;;;0.10;0.10;;;;;;;15.06;100.00;98898.53;5072935;28;20204;-55
2023/09/01 02:47:36;;;;;;;0.10;0.10;;;;;;;15.11;100.00;98888.28;5073010;28;20204;-55
2023/09/01 02:50:23;;;;;;;0.10;0.10;;;;;;;14.96;100.00;98890.47;5072748;28;20203;-56
2023/09/01 02:53:10;;;;;;;0.10;0.10;;;;;;;14.98;100.00;98887.66;5072834;28;20195;-55
2023/09/01 02:55:57;;;;;;;0.10;0.10;;;;;;;14.99;100.00;98884.00;5071489;28;20294;-55
2023/09/01 02:58:44;;;;;;;0.00;0.00;;;;;;;14.99;100.00;98886.69;5072601;28;20297;-56
2023/09/01 03:01:32;;;;;;;0.10;0.10;;;;;;;14.89;100.00;98887.47;5071648;28;20287;-56
2023/09/01 03:04:20;;;;;;;0.00;0.00;;;;;;;14.71;100.00;98889.03;5071828;28;20195;-56
2023/09/01 03:07:07;;;;;;;0.00;0.00;;;;;;;14.62;100.00;98892.50;5072568;28;20234;-55
2023/09/01 03:09:54;;;;;;;0.00;0.00;;;;;;;14.53;100.00;98895.94;5071659;28;20203;-55
2023/09/01 03:12:41;;;;;;;0.00;0.00;;;;;;;14.71;100.00;98890.88;5070832;28;20191;-56
2023/09/01 03:15:28;;;;;;;0.10;0.10;;;;;;;14.69;100.00;98883.00;5072066;28;20215;-56
2023/09/01 03:18:15;;;;;;;0.10;0.10;;;;;;;14.77;100.00;98885.88;5071625;28;20691;-56
2023/09/01 03:21:14;;;;;;;0.10;0.10;;;;;;;14.71;100.00;98874.88;5071568;28;20196;-56
2023/09/01 03:24:01;;;;;;;0.10;0.10;;;;;;;14.74;100.00;98886.09;5072418;28;20195;-55
2023/09/01 03:26:48;;;;;;;0.10;0.10;;;;;;;14.85;100.00;98890.53;5070149;28;20196;-56
2023/09/01 03:29:35;;;;;;;0.10;0.10;;;;;;;14.54;100.00;98884.31;5071158;28;20310;-56
2023/09/01 03:32:22;;;;;;;0.10;0.10;;;;;;;14.65;100.00;98884.22;5071530;28;20210;-56
2023/09/01 03:35:09;;;;;;;0.10;0.10;;;;;;;14.81;100.00;98887.28;5072210;28;20227;-56
2023/09/01 03:37:57;;;;;;;0.10;0.10;;;;;;;14.78;100.00;98892.03;5072083;28;20291;-55
2023/09/01 03:40:45;;;;;;;0.10;0.10;;;;;;;14.75;100.00;98890.47;5070074;28;20191;-55
2023/09/01 03:43:32;;;;;;;0.10;0.10;;;;;;;14.51;100.00;98892.56;5072264;28;20254;-55
2023/09/01 03:46:19;;;;;;;0.10;0.10;;;;;;;14.67;100.00;98889.41;5071448;28;20203;-55
2023/09/01 03:49:06;;;;;;;0.10;0.10;;;;;;;14.67;100.00;98884.97;5071348;28;20199;-56
2023/09/01 03:51:53;;;;;;;0.07;0.07;;;;;;;14.59;100.00;98901.59;5071375;28;20237;-56
2023/09/01 03:54:41;;;;;;;0.00;0.00;;;;;;;14.62;100.00;98896.97;5071172;28;20207;-55
2023/09/01 03:57:28;;;;;;;0.10;0.10;;;;;;;14.69;100.00;98904.34;5070838;28;20199;-56
2023/09/01 04:00:16;;;;;;;0.00;0.00;;;;;;;14.83;100.00;98908.47;5072207;28;20226;-55
2023/09/01 04:03:03;;;;;;;0.10;0.10;;;;;;;14.76;100.00;98910.81;5072123;28;20635;-56
2023/09/01 04:05:50;;;;;;;0.07;0.07;;;;;;;14.88;100.00;98914.28;5071190;28;20195;-56
2023/09/01 04:08:37;;;;;;;0.00;0.00;;;;;;;14.83;100.00;98905.81;5072074;28;20203;-56
2023/09/01 04:11:26;;;;;;;0.10;0.10;;;;;;;14.72;100.00;98906.72;5070817;28;20230;-56
2023/09/01 04:14:13;;;;;;;0.10;0.10;;;;;;;14.87;100.00;98902.78;5071969;28;20212;-56
2023/09/01 04:17:00;;;;;;;0.00;0.00;;;;;;;14.88;100.00;98899.13;5071922;28;20188;-56
2023/09/01 04:19:48;;;;;;;0.10;0.10;;;;;;;14.97;100.00;98894.81;5071048;28;20199;-56
2023/09/01 04:22:34;;;;;;;0.10;0.10;;;;;;;15.06;100.00;98902.03;5070834;28;20204;-56
2023/09/01 04:25:21;;;;;;;0.10;0.10;;;;;;;14.92;100.00;98896.19;5069662;28;20200;-56
2023/09/01 04:28:10;;;;;;;0.10;0.10;;;;;;;14.87;100.00;98900.09;5071856;28;20195;-56
2023/09/01 04:30:59;;;;;;;0.00;0.00;;;;;;;14.84;100.00;98897.69;5070781;28;20195;-56
2023/09/01 04:33:48;;;;;;;0.00;0.00;;;;;;;14.92;100.00;98897.03;5070643;28;20242;-56
2023/09/01 04:36:36;;;;;;;0.00;0.00;;;;;;;14.75;100.00;98892.28;5070662;28;20199;-56
2023/09/01 04:39:34;;;;;;;0.10;0.10;;;;;;;14.78;100.00;98890.22;5070842;28;20323;-56
2023/09/01 04:42:21;;;;;;;0.10;0.10;;;;;;;14.83;100.00;98893.31;5073098;28;20203;-56
2023/09/01 04:45:10;;;;;;;0.00;0.00;;;;;;;14.92;100.00;98894.34;5074195;28;20183;-56
2023/09/01 04:47:57;;;;;;;0.00;0.00;;;;;;;14.91;100.00;98895.34;5074304;28;20195;-56
2023/09/01 04:50:44;;;;;;;0.10;0.10;;;;;;;14.90;100.00;98909.66;5074111;28;20198;-56
2023/09/01 04:53:31;;;;;;;0.00;0.00;;;;;;;14.92;100.00;98904.19;5073938;28;20195;-56
2023/09/01 04:56:19;;;;;;;0.10;0.10;;;;;;;14.80;100.00;98906.94;5072588;28;20261;-56
2023/09/01 04:59:06;;;;;;;0.10;0.10;;;;;;;15.00;100.00;98912.38;5074149;28;20191;-56
2023/09/01 05:01:54;;;;;;;0.10;0.10;;;;;;;14.95;100.00;98904.75;5074795;28;20259;-55
2023/09/01 05:04:41;;;;;;;0.10;0.10;;;;;;;15.02;100.00;98908.59;5075048;28;20187;-56
2023/09/01 05:07:28;;;;;;;0.00;0.00;;;;;;;15.18;100.00;98905.44;5075013;28;20271;-56
2023/09/01 05:10:15;;;;;;;0.10;0.10;;;;;;;15.11;100.00;98901.63;5073734;28;20301;-56
2023/09/01 05:13:02;;;;;;;0.10;0.10;;;;;;;15.14;100.00;98904.00;5074597;28;20203;-56
2023/09/01 05:15:49;;;;;;;0.10;0.10;;;;;;;15.26;100.00;98905.63;5074561;28;20219;-56
2023/09/01 05:18:37;;;;;;;0.00;0.00;;;;;;;15.25;100.00;98892.41;5074584;28;20203;-56
2023/09/01 05:21:24;;;;;;;0.07;0.07;;;;;;;15.21;100.00;98901.66;5074780;28;20199;-56
2023/09/01 05:24:11;;;;;;;0.10;0.10;;;;;;;15.18;100.00;98900.97;5073538;28;20722;-56
2023/09/01 05:26:58;;;;;;;0.10;0.10;;;;;;;15.17;100.00;98895.75;5073247;28;20199;-56
2023/09/01 05:29:45;;;;;;;0.10;0.10;;;;;;;15.16;100.00;98907.41;5073504;28;20252;-55
2023/09/01 05:32:32;;;;;;;0.10;0.10;;;;;;;15.21;100.00;98905.16;5074477;28;20736;-56
2023/09/01 05:35:20;;;;;;;0.07;0.07;;;;;;;15.13;100.00;98910.31;5073307;28;20219;-56
2023/09/01 05:38:09;;;;;;;0.00;0.00;;;;;;;15.28;100.00;98910.81;5073198;28;20331;-56
2023/09/01 05:40:57;;;;;;;0.10;0.10;;;;;;;15.20;100.00;98910.66;5071951;28;20195;-56
2023/09/01 05:43:44;;;;;;;0.10;0.10;;;;;;;14.98;100.00;98912.50;5073082;28;20699;-56
2023/09/01 05:46:32;;;;;;;0.10;0.10;;;;;;;15.08;100.00;98917.91;5073120;28;20453;-56
2023/09/01 05:49:19;;;;;;;0.10;0.10;;;;;;;15.15;100.00;98913.69;5072580;28;20246;-56
2023/09/01 05:52:07;;;;;;;0.10;0.10;;;;;;;15.22;100.00;98914.03;5072853;28;20195;-56
2023/09/01 05:54:54;;;;;;;0.10;0.10;;;;;;;15.22;100.00;98908.69;5073848;28;20216;-56
2023/09/01 05:57:42;;;;;;;0.10;0.10;;;;;;;15.33;100.00;98911.25;5073842;28;20278;-56
2023/09/01 06:00:29;;;;;;;0.10;0.10;;;;;;;15.36;100.00;98916.34;5073960;28;20303;-56
2023/09/01 06:03:16;;;;;;;0.00;0.00;;;;;;;15.33;100.00;98914.75;5073793;28;20265;-56
2023/09/01 06:06:03;;;;;;;0.00;0.00;;;;;;;15.40;100.00;98918.59;5073828;28;20191;-56
2023/09/01 06:08:50;;;;;;;0.10;0.10;;;;;;;15.41;100.00;98920.28;5073652;28;20211;-56
2023/09/01 06:11:38;;;;;;;0.00;0.00;;;;;;;15.52;100.00;98931.84;5072548;28;20311;-56
2023/09/01 06:14:25;;;;;;;0.10;0.10;;;;;;;15.26;100.00;98932.31;5073610;28;20203;-56
2023/09/01 06:17:12;;;;;;;0.10;0.10;;;;;;;15.14;100.00;98926.19;5073547;28;20199;-55
2023/09/01 06:19:59;;;;;;;0.00;0.00;;;;;;;15.38;100.00;98933.06;5073473;28;20195;-56
2023/09/01 06:22:46;;;;;;;0.00;0.00;;;;;;;15.36;100.00;98941.22;5073539;28;20198;-56
2023/09/01 06:25:34;;;;;;;0.07;0.07;;;;;;;15.27;100.00;98935.81;5072189;28;20277;-55
2023/09/01 06:28:21;;;;;;;0.10;0.10;;;;;;;15.30;100.00;98938.22;5073267;28;20234;-56
2023/09/01 06:31:09;;;;;;;0.10;0.10;;;;;;;15.14;100.00;98944.03;5073312;28;20199;-56
2023/09/01 06:33:56;;;;;;;0.10;0.10;;;;;;;15.31;100.00;98943.41;5073203;28;20545;-56
2023/09/01 06:36:43;;;;;;;0.10;0.10;;;;;;;15.41;100.00;98943.47;5072852;28;20319;-56
2023/09/01 06:39:30;;;;;;;0.00;0.00;;;;;;;15.30;100.00;98957.75;5073084;28;20196;-56
2023/09/01 06:42:18;;;;;;;0.10;0.10;;;;;;;15.54;100.00;98951.22;5071961;28;20257;-56
2023/09/01 06:45:06;;;;;;;0.10;0.10;;;;;;;15.32;100.00;98954.94;5073039;28;20203;-56
2023/09/01 06:47:55;;;;;;;0.00;0.00;;;;;;;15.34;100.00;98958.31;5073149;28;20275;-56
2023/09/01 06:50:42;;;;;;;0.10;0.10;;;;;;;15.36;100.00;98954.56;5073130;28;20195;-56
2023/09/01 06:53:29;;;;;;;0.00;0.00;;;;;;;15.34;100.00;98956.47;5072981;28;20714;-56
2023/09/01 06:56:16;;;;;;;0.00;0.00;;;;;;;15.59;100.00;98967.69;5071378;28;20211;-56
2023/09/01 06:59:05;;;;;;;0.10;0.10;;;;;;;15.52;100.00;98966.53;5072861;28;20311;-56
2023/09/01 07:01:52;;;;;;;0.00;0.00;;;;;;;15.66;100.00;98960.88;5071963;28;20198;-56
2023/09/01 07:04:39;;;;;;;0.10;0.10;;;;;;;15.40;100.00;98971.13;5072478;28;20206;-56
2023/09/01 07:07:26;;;;;;;0.10;0.10;;;;;;;15.39;100.00;98962.28;5072657;28;20195;-56
2023/09/01 07:10:12;;;;;;;0.00;0.00;;;;;;;15.25;100.00;98967.97;5071398;28;20207;-56
2023/09/01 07:12:59;;;;;;;0.10;0.10;;;;;;;15.33;100.00;98970.81;5072689;28;20285;-56
2023/09/01 07:15:51;;;;;;;0.00;0.00;;;;;;;15.17;100.00;98981.13;5072232;28;20227;-56
2023/09/01 07:18:38;;;;;;;0.10;0.10;;;;;;;15.07;100.00;98983.75;5072461;28;20188;-56
2023/09/01 07:21:25;;;;;;;0.00;0.00;;;;;;;15.22;100.00;98976.22;5072334;28;20580;-56
2023/09/01 07:24:12;;;;;;;0.10;0.10;;;;;;;15.07;100.00;98996.25;5072498;28;20203;-56
2023/09/01 07:26:59;;;;;;;0.10;0.10;;;;;;;15.31;100.00;98982.59;5071144;28;20731;-56
2023/09/01 07:29:48;;;;;;;0.10;0.10;;;;;;;15.58;100.00;98988.22;5072323;28;20199;-56
2023/09/01 07:32:36;;;;;;;0.00;0.00;;;;;;;15.52;100.00;98987.91;5072564;28;20295;-56
2023/09/01 07:35:23;;;;;;;0.00;0.00;;;;;;;15.67;100.00;98994.63;5071385;28;20191;-55
2023/09/01 07:38:10;;;;;;;0.10;0.10;;;;;;;15.61;100.00;98992.47;5071857;28;20346;-56
2023/09/01 07:40:57;;;;;;;0.00;0.00;;;;;;;15.32;100.00;98992.28;5071227;28;20192;-56
2023/09/01 07:43:44;;;;;;;0.00;0.00;;;;;;;15.56;100.00;98992.00;5072410;28;20210;-56
2023/09/01 07:46:33;;;;;;;0.10;0.10;;;;;;;15.76;100.00;99000.97;5072131;28;20195;-56
2023/09/01 07:49:21;;;;;;;0.10;0.10;;;;;;;16.06;100.00;99011.63;5072376;28;20202;-56
2023/09/01 07:52:08;;;;;;;0.07;0.07;;;;;;;16.07;100.00;99012.47;5072439;28;20242;-56
2023/09/01 07:54:55;;;;;;;0.00;0.00;;;;;;;15.90;100.00;99004.09;5072146;28;20202;-56
2023/09/01 07:57:42;;;;;;;0.00;0.00;;;;;;;15.88;100.00;99008.75;5072047;28;20215;-56
2023/09/01 08:00:29;;;;;;;0.00;0.00;;;;;;;16.03;100.00;99007.41;5072127;28;20310;-56
2023/09/01 08:03:17;;;;;;;0.10;0.10;;;;;;;16.11;100.00;99008.53;5072056;28;20188;-56
2023/09/01 08:06:06;;;;;;;0.10;0.10;;;;;;;16.26;100.00;99008.00;5072442;28;20467;-56
2023/09/01 08:08:53;;;;;;;0.00;0.00;;;;;;;16.09;100.00;99005.16;5072211;28;20687;-56
2023/09/01 08:11:40;;;;;;;0.00;0.00;;;;;;;15.92;100.00;99001.28;5070652;28;20196;-56
2023/09/01 08:14:27;;;;;;;0.07;0.07;;;;;;;15.98;100.00;98995.41;5071996;28;20196;-56
2023/09/01 08:17:13;;;;;;;0.10;0.10;;;;;;;16.16;100.00;99004.47;5075634;28;20262;-57
2023/09/01 08:20:03;;;;;;;0.10;0.10;;;;;;;16.19;100.00;99001.50;5075663;28;20199;-56
2023/09/01 08:22:51;;;;;;;0.10;0.10;;;;;;;16.25;100.00;98995.63;5075789;28;20215;-56
2023/09/01 08:25:38;;;;;;;0.07;0.07;;;;;;;16.21;100.00;98991.56;5074357;28;20192;-56
2023/09/01 08:28:25;;;;;;;0.10;0.10;;;;;;;16.47;100.00;99007.88;5075432;28;20217;-56
2023/09/01 08:31:12;;;;;;;0.00;0.00;;;;;;;16.23;100.00;99004.78;5075694;28;20330;-56
2023/09/01 08:33:59;;;;;;;0.10;0.10;;;;;;;16.32;100.00;99003.94;5075653;28;20218;-56
2023/09/01 08:36:46;;;;;;;0.10;0.10;;;;;;;16.44;100.00;99008.19;5075246;28;20214;-56
2023/09/01 08:39:34;;;;;;;0.00;0.00;;;;;;;16.21;100.00;99014.72;5075527;28;20268;-56
2023/09/01 08:42:22;;;;;;;0.10;0.10;;;;;;;16.31;100.00;99015.63;5074018;28;20195;-56
2023/09/01 08:45:10;;;;;;;0.00;0.00;;;;;;;16.37;100.00;99011.53;5075377;28;20334;-56
2023/09/01 08:47:57;;;;;;;0.00;0.00;;;;;;;16.34;100.00;99011.81;5075241;28;20192;-56
2023/09/01 08:50:44;;;;;;;0.10;0.10;;;;;;;16.44;100.00;99018.03;5075191;28;20195;-56
2023/09/01 08:53:32;;;;;;;0.00;0.00;;;;;;;16.57;100.00;99018.59;5075348;28;20184;-56
2023/09/01 08:56:21;;;;;;;0.10;0.10;;;;;;;16.44;100.00;99021.53;5074017;28;20258;-56
2023/09/01 08:59:10;;;;;;;0.00;0.00;;;;;;;16.54;100.00;99021.56;5075134;28;20211;-56
2023/09/01 09:01:56;;;;;;;0.00;0.00;;;;;;;16.67;100.00;99016.75;5075136;28;20249;-56
2023/09/01 09:04:44;;;;;;;0.10;0.10;;;;;;;16.45;100.00;99017.03;5074977;28;20195;-56
2023/09/01 09:07:30;;;;;;;0.00;0.00;;;;;;;16.52;100.00;99012.84;5074989;28;20191;-56
2023/09/01 09:10:17;;;;;;;0.10;0.10;;;;;;;16.50;100.00;99012.97;5073574;28;20279;-56
2023/09/01 09:13:21;;;;;;;0.00;0.00;;;;;;;16.69;100.00;99003.28;5074939;28;20191;-56
2023/09/01 09:16:10;;;;;;;0.00;0.00;;;;;;;16.71;100.00;98999.50;5074436;28;20202;-56
2023/09/01 09:18:56;;;;;;;0.10;0.10;;;;;;;16.61;100.00;99020.03;5074676;28;20187;-56
2023/09/01 09:21:43;;;;;;;0.10;0.10;;;;;;;16.71;100.00;99020.06;5074693;28;20192;-57
2023/09/01 09:24:36;;;;;;;0.10;0.10;;;;;;;16.91;100.00;99016.38;5074512;28;20199;-56
2023/09/01 09:27:22;;;;;;;0.00;0.00;;;;;;;16.92;100.00;99020.75;5073061;28;20191;-57
2023/09/01 09:30:13;;;;;;;0.00;0.00;;;;;;;16.88;100.00;99012.13;5074611;28;20196;-57
2023/09/01 09:33:03;;;;;;;0.00;0.00;;;;;;;17.02;100.00;99023.41;5074581;28;20199;-57
2023/09/01 09:35:50;;;;;;;0.10;0.10;;;;;;;16.86;100.00;99014.13;5074470;28;20195;-57
2023/09/01 09:38:41;;;;;;;0.10;0.10;;;;;;;16.81;100.00;99019.06;5073945;28;20226;-56
2023/09/01 09:41:44;;;;;;;0.00;0.00;;;;;;;16.91;100.00;99027.09;5073106;28;20203;-56
2023/09/01 09:44:33;;;;;;;0.10;0.10;;;;;;;16.79;100.00;99023.72;5074334;28;20191;-56
2023/09/01 09:47:22;;;;;;;0.00;0.00;;;;;;;16.94;100.00;99017.94;5074275;28;20191;-57
2023/09/01 09:50:10;;;;;;;0.10;0.10;;;;;;;16.90;100.00;99017.38;5074179;28;20196;-57
2023/09/01 09:53:02;;;;;;;0.00;0.00;;;;;;;16.80;100.00;99022.72;5074208;28;20195;-56
2023/09/01 09:55:50;;;;;;;0.00;0.00;;;;;;;17.13;100.00;99025.94;5072656;28;20203;-56
2023/09/01 09:58:41;;;;;;;0.00;0.00;;;;;;;17.38;100.00;99024.50;5073651;28;20264;-56
2023/09/01 10:01:31;;;;;;;0.10;0.10;;;;;;;17.46;100.00;99027.28;5073809;28;20253;-56
2023/09/01 10:04:20;;;;;;;0.00;0.00;;;;;;;17.50;100.00;99020.66;5073520;28;20354;-57
2023/09/01 10:07:07;;;;;;;0.10;0.10;;;;;;;17.32;100.00;99015.19;5073757;28;20188;-56
2023/09/01 10:09:55;;;;;;;0.10;0.10;;;;;;;17.52;100.00;99013.31;5073678;28;20196;-56
2023/09/01 10:12:42;;;;;;;0.10;0.10;;;;;;;17.14;100.00;99004.38;5073551;28;20199;-56
2023/09/01 10:15:31;;;;;;;0.10;0.10;;;;;;;17.43;100.00;99016.84;5073383;28;20294;-57
2023/09/01 10:18:20;;;;;;;0.10;0.10;;;;;;;17.68;100.00;99020.75;5073264;28;20341;-56
2023/09/01 10:21:08;;;;;;;0.00;0.00;;;;;;;17.69;100.00;99012.59;5073502;28;20270;-56
2023/09/01 10:23:55;;;;;;;0.00;0.00;;;;;;;17.68;100.00;99010.03;5073468;28;20195;-56
2023/09/01 10:26:43;;;;;;;0.10;0.10;;;;;;;17.98;100.00;99003.56;5072112;28;20608;-57
2023/09/01 10:29:31;;;;;;;0.10;0.10;;;;;;;18.17;100.00;99005.31;5073320;28;20191;-56
2023/09/01 10:32:19;;;;;;;0.00;0.00;;;;;;;18.49;100.00;99000.28;5073212;28;20195;-57
2023/09/01 10:35:06;;;;;;;0.10;0.10;;;;;;;18.47;100.00;98988.03;5073282;28;20187;-56
2023/09/01 10:38:11;;;;;;;0.10;0.10;;;;;;;18.71;100.00;98982.91;5072141;28;20231;-56
2023/09/01 10:40:59;;;;;;;0.10;0.10;;;;;;;18.97;100.00;98982.97;5071875;28;20187;-56
2023/09/01 10:43:53;;;;;;;0.10;0.10;;;;;;;19.32;100.00;98957.88;5073103;28;20307;-57
2023/09/01 10:46:40;;;;;;;0.00;0.00;;;;;;;19.34;100.00;98950.50;5073108;28;20204;-57
2023/09/01 10:49:56;;;;;;;0.00;0.00;;;;;;;19.21;100.00;98943.88;5072996;28;20276;-56
2023/09/01 10:52:46;;;;;;;0.00;0.00;;;;;;;19.37;100.00;98938.59;5073077;28;20211;-56
2023/09/01 10:55:55;;;;;;;0.00;0.00;;;;;;;19.12;100.00;98938.44;5071661;28;20271;-56
2023/09/01 10:58:47;;;;;;;0.10;0.10;;;;;;;19.30;100.00;98934.84;5071571;28;20219;-56
2023/09/01 11:01:36;;;;;;;0.10;0.10;;;;;;;19.10;100.00;98927.00;5072723;28;20199;-56
2023/09/01 11:04:33;;;;;;;0.10;0.10;;;;;;;19.37;100.00;98922.47;5072705;28;20195;-57
2023/09/01 11:07:20;;;;;;;0.10;0.10;;;;;;;19.14;100.00;98916.81;5072918;28;20196;-56
2023/09/01 11:10:07;;;;;;;0.00;0.00;;;;;;;19.28;100.00;98923.41;5071361;28;20262;-56
2023/09/01 11:12:55;;;;;;;0.10;0.10;;;;;;;19.27;100.00;98908.31;5072811;28;20199;-56
2023/09/01 11:15:46;;;;;;;0.03;0.03;;;;;;;19.40;100.00;98908.75;5072726;28;20234;-56
2023/09/01 11:18:33;;;;;;;0.00;0.00;;;;;;;20.04;100.00;98898.41;5072603;28;20214;-56
2023/09/01 11:21:20;;;;;;;0.00;0.00;;;;;;;20.38;100.00;98890.22;5072631;28;20261;-56
2023/09/01 11:24:08;;;;;;;0.10;0.10;;;;;;;20.40;100.00;98875.59;5072218;28;20253;-57
2023/09/01 11:26:55;;;;;;;0.10;0.10;;;;;;;21.12;100.00;98870.31;5071315;28;20679;-56
2023/09/01 11:29:49;;;;;;;0.05;0.05;;;;;;;21.07;100.00;98854.69;5071328;28;20675;-56
2023/09/01 11:32:35;;;;;;;0.00;0.00;;;;;;;20.77;100.00;98855.41;5071090;28;20215;-56
2023/09/01 11:35:27;;;;;;;0.10;0.10;;;;;;;20.94;100.00;98834.66;5071817;28;20202;-56
2023/09/01 11:38:18;;;;;;;0.10;0.10;;;;;;;20.91;100.00;98840.41;5071916;28;20285;-56
2023/09/01 11:41:07;;;;;;;0.10;0.10;;;;;;;20.70;100.00;98844.47;5071179;28;20199;-56
2023/09/01 11:43:55;;;;;;;0.00;0.00;;;;;;;20.64;100.00;98844.31;5072274;28;20318;-56
2023/09/01 11:46:44;;;;;;;0.10;0.10;;;;;;;20.58;100.00;98852.06;5072333;28;20203;-56
2023/09/01 11:49:31;;;;;;;0.10;0.10;;;;;;;20.02;100.00;98853.69;5073120;28;20187;-56
2023/09/01 11:52:18;;;;;;;0.10;0.10;;;;;;;19.93;100.00;98859.22;5074700;28;20191;-56
2023/09/01 11:55:06;;;;;;;0.10;0.10;;;;;;;19.62;100.00;98856.28;5073188;28;20333;-56
2023/09/01 11:57:54;;;;;;;0.10;0.10;;;;;;;19.80;100.00;98857.03;5075563;28;20219;-56
2023/09/01 12:00:40;;;;;;;0.10;0.10;;;;;;;19.70;100.00;98859.00;5075215;28;20211;-57
2023/09/01 12:03:29;;;;;;;0.00;0.00;;;;;;;19.72;100.00;98860.53;5076129;28;20476;-57
2023/09/01 12:06:18;;;;;;;0.10;0.10;;;;;;;19.83;100.00;98871.97;5075952;28;20191;-57
2023/09/01 12:09:13;;;;;;;0.10;0.10;;;;;;;19.77;100.00;98875.31;5076120;28;20273;-57
2023/09/01 12:12:02;;;;;;;0.10;0.10;;;;;;;19.60;100.00;98874.44;5074052;28;20191;-57
2023/09/01 12:14:50;;;;;;;0.10;0.10;;;;;;;19.16;100.00;98878.06;5074638;28;20254;-57
2023/09/01 12:17:37;;;;;;;0.00;0.00;;;;;;;19.24;100.00;98882.63;5075741;28;20192;-57
2023/09/01 12:20:25;;;;;;;0.00;0.00;;;;;;;19.09;100.00;98884.22;5075813;28;20204;-57
2023/09/01 12:23:12;;;;;;;0.10;0.10;;;;;;;18.92;100.00;98906.59;5075715;28;20248;-57
2023/09/01 12:26:01;;;;;;;0.10;0.10;;;;;;;18.83;100.00;98911.91;5073696;28;20195;-57
2023/09/01 12:28:47;;;;;;;0.10;0.10;;;;;;;18.68;100.00;98918.81;5075433;28;20199;-57
2023/09/01 12:31:34;;;;;;;0.10;0.10;;;;;;;18.69;100.00;98915.16;5075222;28;20191;-57
2023/09/01 12:34:22;;;;;;;0.10;0.10;;;;;;;18.59;100.00;98919.72;5075390;28;20203;-57
2023/09/01 12:37:10;;;;;;;0.10;0.10;;;;;;;18.65;100.00;98926.34;5075359;28;20203;-57
2023/09/01 12:39:57;;;;;;;0.10;0.10;;;;;;;18.63;100.00;98929.16;5074767;28;20223;-57
2023/09/01 12:42:43;;;;;;;0.10;0.10;;;;;;;18.66;100.00;98936.94;5074301;28;20243;-57
2023/09/01 12:45:31;;;;;;;0.00;0.00;;;;;;;18.65;100.00;98937.09;5075488;28;20195;-57
2023/09/01 12:48:18;;;;;;;0.10;0.10;;;;;;;18.57;100.00;98951.22;5074701;28;20195;-57
2023/09/01 12:51:04;;;;;;;0.10;0.10;;;;;;;18.56;100.00;98952.22;5075190;28;20362;-57
2023/09/01 12:53:53;;;;;;;0.10;0.10;;;;;;;18.54;100.00;98959.59;5075181;28;20219;-57
2023/09/01 12:56:42;;;;;;;0.10;0.10;;;;;;;18.69;100.00;98957.22;5073716;28;20195;-57
2023/09/01 12:59:32;;;;;;;0.00;0.00;;;;;;;18.53;100.00;98961.44;5074777;28;20241;-57
2023/09/01 13:02:18;;;;;;;0.10;0.10;;;;;;;18.55;100.00;98961.28;5074735;28;20353;-57